sensor_id;sensor_type;location;lat;lon;timestamp;pressure;altitude;pressure_sealevel;temperature;humidity
58973;BME280;44750;52.040;7.472;2023-04-19T00:03:11;101262.13;;;10.05;100.00
58973;BME280;44750;52.040;7.472;2023-04-19T00:08:11;101257.53;;;9.96;100.00
58973;BME280;44750;52.040;7.472;2023-04-19T00:13:11;101252.13;;;9.96;100.00
58973;BME280;44750;52.040;7.472;2023-04-19T00:18:11;101243.63;;;9.79;100.00
58973;BME280;44750;52.040;7.472;2023-04-19T00:23:12;101237.50;;;9.77;100.00
58973;BME280;44750;52.040;7.472;2023-04-19T00:28:12;101233.06;;;9.66;100.00
58973;BME280;44750;52.040;7.472;2023-04-19T00:33:12;101243.72;;;9.68;100.00
58973;BME280;44750;52.040;7.472;2023-04-19T00:38:12;101228.50;;;9.67;100.00
58973;BME280;44750;52.040;7.472;2023-04-19T00:43:19;101227.50;;;9.68;100.00
58973;BME280;44750;52.040;7.472;2023-04-19T00:48:19;101222.34;;;9.65;100.00
58973;BME280;44750;52.040;7.472;2023-04-19T00:53:19;101217.75;;;9.56;100.00
58973;BME280;44750;52.040;7.472;2023-04-19T00:58:20;101203.50;;;9.44;100.00
58973;BME280;44750;52.040;7.472;2023-04-19T01:03:20;101213.59;;;9.51;100.00
58973;BME280;44750;52.040;7.472;2023-04-19T01:08:20;101210.72;;;9.43;100.00
58973;BME280;44750;52.040;7.472;2023-04-19T01:13:21;101203.69;;;9.31;100.00
58973;BME280;44750;52.040;7.472;2023-04-19T01:18:21;101190.50;;;9.16;100.00
58973;BME280;44750;52.040;7.472;2023-04-19T01:23:21;101197.44;;;9.09;100.00
58973;BME280;44750;52.040;7.472;2023-04-19T01:28:21;101216.69;;;9.16;100.00
58973;BME280;44750;52.040;7.472;2023-04-19T01:33:22;101214.03;;;9.26;100.00
58973;BME280;44750;52.040;7.472;2023-04-19T01:38:22;101196.44;;;9.10;100.00
58973;BME280;44750;52.040;7.472;2023-04-19T01:43:23;101213.84;;;9.17;100.00
58973;BME280;44750;52.040;7.472;2023-04-19T01:48:23;101215.00;;;9.25;100.00
58973;BME280;44750;52.040;7.472;2023-04-19T01:53:23;101217.06;;;9.32;100.00
58973;BME280;44750;52.040;7.472;2023-04-19T01:58:23;101202.84;;;9.30;100.00
58973;BME280;44750;52.040;7.472;2023-04-19T02:03:23;101211.59;;;9.23;100.00
58973;BME280;44750;52.040;7.472;2023-04-19T02:08:24;101185.63;;;9.10;100.00
58973;BME280;44750;52.040;7.472;2023-04-19T02:13:24;101172.88;;;9.12;100.00
58973;BME280;44750;52.040;7.472;2023-04-19T02:18:25;101187.16;;;9.24;100.00
58973;BME280;44750;52.040;7.472;2023-04-19T02:23:25;101187.63;;;9.29;100.00
58973;BME280;44750;52.040;7.472;2023-04-19T02:28:25;101170.66;;;9.27;100.00
58973;BME280;44750;52.040;7.472;2023-04-19T02:33:25;101162.56;;;9.27;100.00
58973;BME280;44750;52.040;7.472;2023-04-19T02:38:26;101146.91;;;9.21;100.00
58973;BME280;44750;52.040;7.472;2023-04-19T02:43:26;101153.63;;;9.27;100.00
58973;BME280;44750;52.040;7.472;2023-04-19T02:48:26;101144.22;;;9.21;100.00
58973;BME280;44750;52.040;7.472;2023-04-19T02:53:27;101136.09;;;9.21;100.00
58973;BME280;44750;52.040;7.472;2023-04-19T02:58:27;101128.81;;;9.12;100.00
58973;BME280;44750;52.040;7.472;2023-04-19T03:03:27;101127.47;;;9.06;100.00
58973;BME280;44750;52.040;7.472;2023-04-19T03:08:27;101128.91;;;9.10;100.00
58973;BME280;44750;52.040;7.472;2023-04-19T03:13:28;101134.44;;;9.09;100.00
58973;BME280;44750;52.040;7.472;2023-04-19T03:18:28;101144.72;;;9.15;100.00
58973;BME280;44750;52.040;7.472;2023-04-19T03:23:28;101123.59;;;8.99;100.00
58973;BME280;44750;52.040;7.472;2023-04-19T03:28:29;101135.19;;;8.90;100.00
58973;BME280;44750;52.040;7.472;2023-04-19T03:33:29;101147.31;;;8.95;100.00
58973;BME280;44750;52.040;7.472;2023-04-19T03:38:29;101128.34;;;8.85;100.00
58973;BME280;44750;52.040;7.472;2023-04-19T03:43:29;101129.78;;;8.90;100.00
58973;BME280;44750;52.040;7.472;2023-04-19T03:48:30;101122.00;;;8.75;100.00
58973;BME280;44750;52.040;7.472;2023-04-19T03:53:30;101112.88;;;8.66;100.00
58973;BME280;44750;52.040;7.472;2023-04-19T03:58:30;101105.50;;;8.36;100.00
58973;BME280;44750;52.040;7.472;2023-04-19T04:03:31;101109.19;;;8.35;100.00
58973;BME280;44750;52.040;7.472;2023-04-19T04:08:31;101118.50;;;8.31;100.00
58973;BME280;44750;52.040;7.472;2023-04-19T04:13:31;101120.25;;;8.20;100.00
58973;BME280;44750;52.040;7.472;2023-04-19T04:18:31;101126.81;;;8.07;100.00
58973;BME280;44750;52.040;7.472;2023-04-19T04:23:32;101139.94;;;8.00;100.00
58973;BME280;44750;52.040;7.472;2023-04-19T04:28:32;101122.81;;;7.78;100.00
58973;BME280;44750;52.040;7.472;2023-04-19T04:33:32;101128.56;;;7.62;100.00
58973;BME280;44750;52.040;7.472;2023-04-19T04:38:32;101147.22;;;7.65;100.00
58973;BME280;44750;52.040;7.472;2023-04-19T04:43:32;101137.53;;;7.63;100.00
58973;BME280;44750;52.040;7.472;2023-04-19T04:48:33;101131.41;;;7.49;100.00
58973;BME280;44750;52.040;7.472;2023-04-19T04:53:33;101146.72;;;7.49;100.00
58973;BME280;44750;52.040;7.472;2023-04-19T04:58:33;101161.41;;;7.56;100.00
58973;BME280;44750;52.040;7.472;2023-04-19T05:03:34;101159.06;;;7.51;100.00
58973;BME280;44750;52.040;7.472;2023-04-19T05:08:34;101171.94;;;7.59;100.00
58973;BME280;44750;52.040;7.472;2023-04-19T05:13:34;101162.03;;;7.48;100.00
58973;BME280;44750;52.040;7.472;2023-04-19T05:18:34;101180.66;;;7.63;100.00
58973;BME280;44750;52.040;7.472;2023-04-19T05:23:36;101173.78;;;7.59;100.00
58973;BME280;44750;52.040;7.472;2023-04-19T05:28:37;101169.38;;;7.58;100.00
58973;BME280;44750;52.040;7.472;2023-04-19T05:33:38;101184.19;;;7.86;100.00
58973;BME280;44750;52.040;7.472;2023-04-19T05:38:38;101169.97;;;7.50;100.00
58973;BME280;44750;52.040;7.472;2023-04-19T05:43:38;101176.44;;;7.25;100.00
58973;BME280;44750;52.040;7.472;2023-04-19T05:48:38;101190.50;;;7.17;100.00
58973;BME280;44750;52.040;7.472;2023-04-19T05:53:39;101208.75;;;7.13;100.00
58973;BME280;44750;52.040;7.472;2023-04-19T05:58:39;101163.38;;;6.84;100.00
58973;BME280;44750;52.040;7.472;2023-04-19T06:03:39;101181.50;;;6.82;100.00
58973;BME280;44750;52.040;7.472;2023-04-19T06:08:39;101190.44;;;6.94;100.00
58973;BME280;44750;52.040;7.472;2023-04-19T06:13:40;101216.00;;;6.89;100.00
58973;BME280;44750;52.040;7.472;2023-04-19T06:18:40;101232.03;;;6.90;100.00
58973;BME280;44750;52.040;7.472;2023-04-19T06:23:40;101240.81;;;7.16;100.00
58973;BME280;44750;52.040;7.472;2023-04-19T06:28:40;101225.41;;;7.30;100.00
58973;BME280;44750;52.040;7.472;2023-04-19T06:33:40;101201.94;;;7.32;100.00
58973;BME280;44750;52.040;7.472;2023-04-19T06:38:41;101243.09;;;7.57;100.00
58973;BME280;44750;52.040;7.472;2023-04-19T06:43:41;101224.00;;;7.60;100.00
58973;BME280;44750;52.040;7.472;2023-04-19T06:48:41;101247.91;;;7.76;100.00
58973;BME280;44750;52.040;7.472;2023-04-19T06:53:41;101251.81;;;8.06;100.00
58973;BME280;44750;52.040;7.472;2023-04-19T06:58:42;101211.50;;;7.93;100.00
58973;BME280;44750;52.040;7.472;2023-04-19T07:03:44;101260.50;;;8.32;100.00
58973;BME280;44750;52.040;7.472;2023-04-19T07:08:44;101261.44;;;8.42;100.00
58973;BME280;44750;52.040;7.472;2023-04-19T07:13:45;101254.25;;;8.86;100.00
58973;BME280;44750;52.040;7.472;2023-04-19T07:18:45;101242.25;;;9.12;100.00
58973;BME280;44750;52.040;7.472;2023-04-19T07:23:45;101262.50;;;9.06;100.00
58973;BME280;44750;52.040;7.472;2023-04-19T07:28:45;101274.97;;;9.61;100.00
58973;BME280;44750;52.040;7.472;2023-04-19T07:33:46;101272.72;;;9.66;100.00
58973;BME280;44750;52.040;7.472;2023-04-19T07:38:46;101255.19;;;9.81;100.00
58973;BME280;44750;52.040;7.472;2023-04-19T07:43:46;101254.00;;;10.36;100.00
58973;BME280;44750;52.040;7.472;2023-04-19T07:48:46;101246.06;;;10.64;100.00
58973;BME280;44750;52.040;7.472;2023-04-19T07:53:47;101281.44;;;10.92;100.00
58973;BME280;44750;52.040;7.472;2023-04-19T07:58:47;101161.84;;;10.67;100.00
58973;BME280;44750;52.040;7.472;2023-04-19T08:03:47;101190.78;;;10.66;100.00
58973;BME280;44750;52.040;7.472;2023-04-19T08:08:47;101245.78;;;11.16;100.00
58973;BME280;44750;52.040;7.472;2023-04-19T08:13:48;101194.44;;;11.24;100.00
58973;BME280;44750;52.040;7.472;2023-04-19T08:18:48;101149.16;;;10.87;100.00
58973;BME280;44750;52.040;7.472;2023-04-19T08:23:48;101078.59;;;11.26;95.81
58973;BME280;44750;52.040;7.472;2023-04-19T08:28:48;100964.00;;;11.16;91.04
58973;BME280;44750;52.040;7.472;2023-04-19T08:33:48;100669.56;;;10.98;83.88
58973;BME280;44750;52.040;7.472;2023-04-19T08:38:49;100761.81;;;11.33;83.20
58973;BME280;44750;52.040;7.472;2023-04-19T08:43:50;100704.38;;;11.56;82.04
58973;BME280;44750;52.040;7.472;2023-04-19T08:48:51;100603.38;;;11.62;81.41
58973;BME280;44750;52.040;7.472;2023-04-19T08:53:53;100403.28;;;11.57;80.58
58973;BME280;44750;52.040;7.472;2023-04-19T08:58:55;100477.03;;;11.85;79.97
58973;BME280;44750;52.040;7.472;2023-04-19T09:03:55;100138.25;;;11.67;76.28
58973;BME280;44750;52.040;7.472;2023-04-19T09:09:28;99909.59;;;12.07;71.56
58973;BME280;44750;52.040;7.472;2023-04-19T09:14:29;99694.19;;;12.01;68.53
58973;BME280;44750;52.040;7.472;2023-04-19T09:19:44;99535.91;;;12.09;66.86
58973;BME280;44750;52.040;7.472;2023-04-19T09:24:44;99238.50;;;11.94;63.69
58973;BME280;44750;52.040;7.472;2023-04-19T09:29:52;99124.00;;;11.99;61.44
58973;BME280;44750;52.040;7.472;2023-04-19T09:34:55;98811.94;;;11.87;57.53
58973;BME280;44750;52.040;7.472;2023-04-19T09:39:55;98789.00;;;12.03;56.00
58973;BME280;44750;52.040;7.472;2023-04-19T09:44:56;98794.78;;;12.47;53.39
58973;BME280;44750;52.040;7.472;2023-04-19T09:50:07;98481.66;;;12.23;51.31
58973;BME280;44750;52.040;7.472;2023-04-19T09:55:08;98535.78;;;12.43;50.91
58973;BME280;44750;52.040;7.472;2023-04-19T10:00:09;98299.81;;;12.36;48.19
58973;BME280;44750;52.040;7.472;2023-04-19T10:05:10;98210.44;;;12.41;47.42
58973;BME280;44750;52.040;7.472;2023-04-19T10:10:11;98520.25;;;12.82;49.35
58973;BME280;44750;52.040;7.472;2023-04-19T10:15:12;98376.00;;;12.78;49.06
58973;BME280;44750;52.040;7.472;2023-04-19T10:20:19;98419.56;;;12.83;50.94
58973;BME280;44750;52.040;7.472;2023-04-19T10:25:27;98341.38;;;12.74;52.02
58973;BME280;44750;52.040;7.472;2023-04-19T10:30:28;98536.97;;;13.04;52.14
58973;BME280;44750;52.040;7.472;2023-04-19T10:35:36;98409.34;;;13.04;52.05
58973;BME280;44750;52.040;7.472;2023-04-19T10:45:52;98563.34;;;13.22;55.05
58973;BME280;44750;52.040;7.472;2023-04-19T10:51:10;98569.09;;;13.32;55.47
58973;BME280;44750;52.040;7.472;2023-04-19T10:56:11;98602.72;;;13.38;57.60
58973;BME280;44750;52.040;7.472;2023-04-19T11:06:41;98545.09;;;13.73;56.75
58973;BME280;44750;52.040;7.472;2023-04-19T11:12:03;98808.69;;;14.18;58.21
58973;BME280;44750;52.040;7.472;2023-04-19T11:17:16;98288.38;;;13.81;55.57
58973;BME280;44750;52.040;7.472;2023-04-19T11:22:16;98439.31;;;14.14;55.98
58973;BME280;44750;52.040;7.472;2023-04-19T11:27:16;98135.81;;;14.06;52.75
58973;BME280;44750;52.040;7.472;2023-04-19T11:32:20;98369.81;;;14.53;53.25
58973;BME280;44750;52.040;7.472;2023-04-19T11:37:20;97776.47;;;14.02;50.69
58973;BME280;44750;52.040;7.472;2023-04-19T11:42:20;98254.88;;;14.63;52.56
58973;BME280;44750;52.040;7.472;2023-04-19T11:47:20;97830.84;;;14.53;49.64
58973;BME280;44750;52.040;7.472;2023-04-19T11:52:25;97793.59;;;14.37;50.87
58973;BME280;44750;52.040;7.472;2023-04-19T11:57:25;98077.91;;;15.09;49.32
58973;BME280;44750;52.040;7.472;2023-04-19T12:02:26;97683.59;;;14.55;49.58
58973;BME280;44750;52.040;7.472;2023-04-19T12:07:26;97648.91;;;14.45;50.34
58973;BME280;44750;52.040;7.472;2023-04-19T12:12:32;97550.09;;;14.40;49.42
58973;BME280;44750;52.040;7.472;2023-04-19T12:17:33;97812.13;;;14.96;49.05
58973;BME280;44750;52.040;7.472;2023-04-19T12:22:33;97297.53;;;14.36;48.84
58973;BME280;44750;52.040;7.472;2023-04-19T12:27:33;97600.28;;;14.76;49.91
58973;BME280;44750;52.040;7.472;2023-04-19T12:32:33;97434.44;;;14.69;48.55
58973;BME280;44750;52.040;7.472;2023-04-19T12:37:34;97432.06;;;14.83;48.36
58973;BME280;44750;52.040;7.472;2023-04-19T12:42:34;97420.19;;;14.95;48.05
58973;BME280;44750;52.040;7.472;2023-04-19T12:47:34;96955.31;;;14.64;44.87
58973;BME280;44750;52.040;7.472;2023-04-19T12:52:34;96841.53;;;14.41;45.65
58973;BME280;44750;52.040;7.472;2023-04-19T12:57:35;97089.84;;;14.84;45.98
58973;BME280;44750;52.040;7.472;2023-04-19T13:02:35;96746.59;;;14.49;44.33
58973;BME280;44750;52.040;7.472;2023-04-19T13:07:35;97014.13;;;14.70;46.71
58973;BME280;44750;52.040;7.472;2023-04-19T13:12:36;97072.94;;;14.87;46.69
58973;BME280;44750;52.040;7.472;2023-04-19T13:17:36;96890.81;;;14.70;46.83
58973;BME280;44750;52.040;7.472;2023-04-19T13:22:36;96907.13;;;14.75;46.56
58973;BME280;44750;52.040;7.472;2023-04-19T13:27:37;96945.81;;;14.82;47.07
58973;BME280;44750;52.040;7.472;2023-04-19T13:32:37;96824.41;;;14.71;47.17
58973;BME280;44750;52.040;7.472;2023-04-19T13:37:37;97024.13;;;14.49;47.30
58973;BME280;44750;52.040;7.472;2023-04-19T13:42:37;97202.69;;;14.55;48.60
58973;BME280;44750;52.040;7.472;2023-04-19T13:47:38;97137.38;;;14.61;48.00
58973;BME280;44750;52.040;7.472;2023-04-19T13:52:38;97084.06;;;14.70;45.78
58973;BME280;44750;52.040;7.472;2023-04-19T13:57:58;96857.34;;;14.75;43.63
58973;BME280;44750;52.040;7.472;2023-04-19T14:02:59;96846.69;;;14.88;42.83
58973;BME280;44750;52.040;7.472;2023-04-19T14:07:59;96985.25;;;15.11;43.55
58973;BME280;44750;52.040;7.472;2023-04-19T14:12:59;96766.31;;;15.07;42.15
58973;BME280;44750;52.040;7.472;2023-04-19T14:18:01;96346.16;;;14.42;42.03
58973;BME280;44750;52.040;7.472;2023-04-19T14:23:01;96234.84;;;14.46;40.85
58973;BME280;44750;52.040;7.472;2023-04-19T14:28:01;96310.97;;;14.51;40.70
58973;BME280;44750;52.040;7.472;2023-04-19T14:33:02;96215.91;;;14.65;38.67
58973;BME280;44750;52.040;7.472;2023-04-19T14:38:02;96346.31;;;14.85;40.53
58973;BME280;44750;52.040;7.472;2023-04-19T14:43:02;96178.25;;;14.72;39.86
58973;BME280;44750;52.040;7.472;2023-04-19T14:48:03;96096.16;;;14.65;38.97
58973;BME280;44750;52.040;7.472;2023-04-19T14:53:03;95784.84;;;14.33;39.20
58973;BME280;44750;52.040;7.472;2023-04-19T14:58:04;95798.94;;;14.35;38.82
58973;BME280;44750;52.040;7.472;2023-04-19T15:03:04;96002.06;;;14.59;39.72
58973;BME280;44750;52.040;7.472;2023-04-19T15:08:04;95704.25;;;14.23;38.90
58973;BME280;44750;52.040;7.472;2023-04-19T15:13:08;95850.84;;;14.38;38.94
58973;BME280;44750;52.040;7.472;2023-04-19T15:18:08;95768.81;;;14.31;38.57
58973;BME280;44750;52.040;7.472;2023-04-19T15:23:08;95628.41;;;14.21;37.61
58973;BME280;44750;52.040;7.472;2023-04-19T15:28:09;95729.25;;;14.39;38.39
58973;BME280;44750;52.040;7.472;2023-04-19T15:33:09;95593.66;;;14.32;38.17
58973;BME280;44750;52.040;7.472;2023-04-19T15:38:09;95387.78;;;14.10;36.89
58973;BME280;44750;52.040;7.472;2023-04-19T15:43:10;95450.16;;;14.15;36.66
58973;BME280;44750;52.040;7.472;2023-04-19T15:48:11;95298.94;;;13.97;37.54
58973;BME280;44750;52.040;7.472;2023-04-19T15:53:12;95294.47;;;13.78;38.05
58973;BME280;44750;52.040;7.472;2023-04-19T15:58:12;95461.22;;;13.82;38.45
58973;BME280;44750;52.040;7.472;2023-04-19T16:03:12;95441.50;;;13.63;38.22
58973;BME280;44750;52.040;7.472;2023-04-19T16:08:13;95528.19;;;13.45;38.72
58973;BME280;44750;52.040;7.472;2023-04-19T16:13:14;95889.06;;;13.71;40.47
58973;BME280;44750;52.040;7.472;2023-04-19T16:18:14;95732.31;;;13.52;39.20
58973;BME280;44750;52.040;7.472;2023-04-19T16:23:16;95805.06;;;13.56;38.45
58973;BME280;44750;52.040;7.472;2023-04-19T16:28:16;95781.06;;;13.44;39.76
58973;BME280;44750;52.040;7.472;2023-04-19T16:33:16;95669.25;;;12.98;40.47
58973;BME280;44750;52.040;7.472;2023-04-19T16:38:17;95830.84;;;13.10;41.12
58973;BME280;44750;52.040;7.472;2023-04-19T16:43:18;95949.41;;;13.19;40.93
58973;BME280;44750;52.040;7.472;2023-04-19T16:48:18;95958.97;;;13.12;41.83
58973;BME280;44750;52.040;7.472;2023-04-19T16:53:19;95848.97;;;12.90;41.54
58973;BME280;44750;52.040;7.472;2023-04-19T16:58:20;95754.59;;;12.63;41.81
58973;BME280;44750;52.040;7.472;2023-04-19T17:03:20;95914.63;;;12.63;42.42
58973;BME280;44750;52.040;7.472;2023-04-19T17:08:20;95816.56;;;12.50;42.02
58973;BME280;44750;52.040;7.472;2023-04-19T17:13:20;95769.81;;;12.34;42.51
58973;BME280;44750;52.040;7.472;2023-04-19T17:18:21;95771.69;;;12.34;42.49
58973;BME280;44750;52.040;7.472;2023-04-19T17:23:21;95727.50;;;12.09;43.09
58973;BME280;44750;52.040;7.472;2023-04-19T17:28:21;95898.25;;;12.04;44.60
58973;BME280;44750;52.040;7.472;2023-04-19T17:33:21;95917.81;;;11.96;44.77
58973;BME280;44750;52.040;7.472;2023-04-19T17:38:22;95947.59;;;11.91;45.25
58973;BME280;44750;52.040;7.472;2023-04-19T17:43:22;96141.31;;;12.03;46.03
58973;BME280;44750;52.040;7.472;2023-04-19T17:48:22;96097.72;;;11.95;46.63
58973;BME280;44750;52.040;7.472;2023-04-19T17:53:22;96066.03;;;11.80;46.82
58973;BME280;44750;52.040;7.472;2023-04-19T17:58:23;96051.47;;;11.60;47.40
58973;BME280;44750;52.040;7.472;2023-04-19T18:03:23;96069.06;;;11.47;48.40
58973;BME280;44750;52.040;7.472;2023-04-19T18:08:23;96180.63;;;11.39;49.19
58973;BME280;44750;52.040;7.472;2023-04-19T18:13:24;96187.13;;;11.23;49.61
58973;BME280;44750;52.040;7.472;2023-04-19T18:18:24;96322.19;;;11.29;51.02
58973;BME280;44750;52.040;7.472;2023-04-19T18:23:24;96227.94;;;11.11;50.04
58973;BME280;44750;52.040;7.472;2023-04-19T18:28:24;96259.59;;;11.00;51.05
58973;BME280;44750;52.040;7.472;2023-04-19T18:33:25;96242.47;;;10.84;51.60
58973;BME280;44750;52.040;7.472;2023-04-19T18:38:26;96361.47;;;10.79;52.64
58973;BME280;44750;52.040;7.472;2023-04-19T18:43:26;96358.34;;;10.54;54.06
58973;BME280;44750;52.040;7.472;2023-04-19T18:48:27;96488.16;;;10.60;54.08
58973;BME280;44750;52.040;7.472;2023-04-19T18:53:27;96507.25;;;10.48;54.70
58973;BME280;44750;52.040;7.472;2023-04-19T18:58:27;96608.63;;;10.45;56.21
58973;BME280;44750;52.040;7.472;2023-04-19T19:03:28;96631.03;;;10.24;57.21
58973;BME280;44750;52.040;7.472;2023-04-19T19:08:29;96584.66;;;10.10;56.35
58973;BME280;44750;52.040;7.472;2023-04-19T19:13:29;96611.41;;;10.11;56.40
58973;BME280;44750;52.040;7.472;2023-04-19T19:18:29;96624.84;;;10.06;56.40
58973;BME280;44750;52.040;7.472;2023-04-19T19:23:30;96572.31;;;9.97;56.21
58973;BME280;44750;52.040;7.472;2023-04-19T19:28:30;96533.28;;;9.82;56.43
58973;BME280;44750;52.040;7.472;2023-04-19T19:33:30;96591.84;;;9.82;56.73
58973;BME280;44750;52.040;7.472;2023-04-19T19:38:33;96559.56;;;9.70;56.89
58973;BME280;44750;52.040;7.472;2023-04-19T19:43:34;96488.09;;;9.56;56.60
58973;BME280;44750;52.040;7.472;2023-04-19T19:48:34;96610.72;;;9.60;57.29
58973;BME280;44750;52.040;7.472;2023-04-19T19:53:35;96547.44;;;9.50;57.10
58973;BME280;44750;52.040;7.472;2023-04-19T19:58:35;96507.31;;;9.37;57.16
58973;BME280;44750;52.040;7.472;2023-04-19T20:03:35;96475.31;;;9.29;57.25
58973;BME280;44750;52.040;7.472;2023-04-19T20:08:37;96422.38;;;9.23;56.65
58973;BME280;44750;52.040;7.472;2023-04-19T20:13:37;96432.03;;;9.18;56.37
58973;BME280;44750;52.040;7.472;2023-04-19T20:18:38;96375.59;;;9.17;55.71
58973;BME280;44750;52.040;7.472;2023-04-19T20:23:38;96289.47;;;9.10;54.99
58973;BME280;44750;52.040;7.472;2023-04-19T20:28:38;96217.69;;;9.04;54.30
58973;BME280;44750;52.040;7.472;2023-04-19T20:33:38;96076.56;;;8.98;53.20
58973;BME280;44750;52.040;7.472;2023-04-19T20:38:39;96069.25;;;8.94;53.35
58973;BME280;44750;52.040;7.472;2023-04-19T20:43:39;96002.31;;;8.85;52.72
58973;BME280;44750;52.040;7.472;2023-04-19T20:48:39;95948.13;;;8.87;52.18
58973;BME280;44750;52.040;7.472;2023-04-19T20:53:40;95975.66;;;8.89;52.35
58973;BME280;44750;52.040;7.472;2023-04-19T20:58:40;95966.69;;;8.83;52.20
58973;BME280;44750;52.040;7.472;2023-04-19T21:03:40;95889.31;;;8.79;51.73
58973;BME280;44750;52.040;7.472;2023-04-19T21:08:40;95882.28;;;8.78;51.80
58973;BME280;44750;52.040;7.472;2023-04-19T21:13:41;95833.97;;;8.66;51.83
58973;BME280;44750;52.040;7.472;2023-04-19T21:18:41;95874.69;;;8.69;52.41
58973;BME280;44750;52.040;7.472;2023-04-19T21:23:41;95877.34;;;8.64;51.99
58973;BME280;44750;52.040;7.472;2023-04-19T21:28:41;95809.63;;;8.50;51.97
58973;BME280;44750;52.040;7.472;2023-04-19T21:33:42;95841.41;;;8.48;52.46
58973;BME280;44750;52.040;7.472;2023-04-19T21:38:42;95816.03;;;8.44;52.06
58973;BME280;44750;52.040;7.472;2023-04-19T21:43:42;95846.47;;;8.45;52.14
58973;BME280;44750;52.040;7.472;2023-04-19T21:48:42;95788.16;;;8.28;52.62
58973;BME280;44750;52.040;7.472;2023-04-19T21:53:43;95781.41;;;8.26;53.10
58973;BME280;44750;52.040;7.472;2023-04-19T21:58:43;95918.56;;;8.32;53.90
58973;BME280;44750;52.040;7.472;2023-04-19T22:03:43;95987.75;;;8.27;54.74
58973;BME280;44750;52.040;7.472;2023-04-19T22:08:43;96124.69;;;8.35;55.31
58973;BME280;44750;52.040;7.472;2023-04-19T22:13:44;96179.00;;;8.27;56.38
58973;BME280;44750;52.040;7.472;2023-04-19T22:18:44;96217.00;;;8.08;57.48
58973;BME280;44750;52.040;7.472;2023-04-19T22:23:44;96308.50;;;8.03;58.73
58973;BME280;44750;52.040;7.472;2023-04-19T22:28:44;96297.41;;;7.82;59.73
58973;BME280;44750;52.040;7.472;2023-04-19T22:33:45;96314.53;;;7.76;60.15
58973;BME280;44750;52.040;7.472;2023-04-19T22:38:45;96361.56;;;7.74;60.11
58973;BME280;44750;52.040;7.472;2023-04-19T22:43:45;96404.41;;;7.75;60.21
58973;BME280;44750;52.040;7.472;2023-04-19T22:48:45;96348.94;;;7.74;59.85
58973;BME280;44750;52.040;7.472;2023-04-19T22:53:45;96247.38;;;7.52;60.25
58973;BME280;44750;52.040;7.472;2023-04-19T22:58:46;96237.34;;;7.48;60.39
58973;BME280;44750;52.040;7.472;2023-04-19T23:03:46;96260.00;;;7.35;60.99
58973;BME280;44750;52.040;7.472;2023-04-19T23:08:46;96336.25;;;7.29;61.57
58973;BME280;44750;52.040;7.472;2023-04-19T23:13:47;96406.19;;;7.29;62.30
58973;BME280;44750;52.040;7.472;2023-04-19T23:18:48;96471.72;;;7.23;62.80
58973;BME280;44750;52.040;7.472;2023-04-19T23:23:49;96465.06;;;7.13;63.56
58973;BME280;44750;52.040;7.472;2023-04-19T23:28:49;96562.91;;;7.12;64.64
58973;BME280;44750;52.040;7.472;2023-04-19T23:33:49;96851.19;;;7.21;67.05
58973;BME280;44750;52.040;7.472;2023-04-19T23:38:49;97050.22;;;7.21;68.92
58973;BME280;44750;52.040;7.472;2023-04-19T23:43:50;97214.09;;;7.23;70.90
58973;BME280;44750;52.040;7.472;2023-04-19T23:48:50;97460.06;;;7.40;72.48
58973;BME280;44750;52.040;7.472;2023-04-19T23:53:50;97597.06;;;7.48;73.62
58973;BME280;44750;52.040;7.472;2023-04-19T23:58:51;97733.53;;;7.41;75.57
